Time;durP1;ratioP1;P1;durP2;ratioP2;P2;SDS_P1;SDS_P2;PMS_P1;PMS_P2;Temp;Humidity;BMP_temperature;BMP_pressure;BME280_temperature;BME280_humidity;BME280_pressure;Samples;Min_cycle;Max_cycle;Signal;HPM_P1;HPM_P2
2022/04/18 00:00:06;;;;;;;6.75;4.22;;;8.00;72.20;;;;;;5059871;28;20044;-72
2022/04/18 00:02:32;;;;;;;9.00;4.57;;;8.00;72.00;;;;;;5068198;28;20033;-71
2022/04/18 00:04:59;;;;;;;7.05;4.15;;;8.00;72.60;;;;;;5061467;28;20036;-71
2022/04/18 00:07:24;;;;;;;10.05;5.45;;;8.00;72.30;;;;;;5050612;28;20110;-71
2022/04/18 00:09:50;;;;;;;7.72;4.40;;;7.90;72.40;;;;;;5034961;28;20458;-72
2022/04/18 00:12:15;;;;;;;6.72;4.25;;;7.90;73.30;;;;;;5066070;28;20091;-71
2022/04/18 00:14:41;;;;;;;8.20;4.38;;;7.90;73.10;;;;;;5066866;28;20253;-71
2022/04/18 00:17:09;;;;;;;9.57;4.50;;;7.90;73.00;;;;;;5063455;28;20047;-72
2022/04/18 00:19:36;;;;;;;7.50;4.47;;;7.90;73.50;;;;;;5043060;28;20114;-71
2022/04/18 00:22:03;;;;;;;7.65;4.38;;;7.80;73.60;;;;;;5061097;28;20048;-71
2022/04/18 00:24:29;;;;;;;8.88;4.78;;;7.80;73.30;;;;;;5068297;28;20052;-71
2022/04/18 00:26:54;;;;;;;7.78;4.60;;;7.70;73.40;;;;;;5053280;28;20032;-71
2022/04/18 00:29:20;;;;;;;10.65;4.47;;;7.80;73.30;;;;;;5049675;28;20555;-72
2022/04/18 00:31:45;;;;;;;9.70;4.32;;;7.80;72.90;;;;;;5067836;28;20076;-71
2022/04/18 00:34:11;;;;;;;8.93;4.32;;;7.80;73.40;;;;;;5053433;28;20135;-71
2022/04/18 00:36:37;;;;;;;6.32;4.18;;;7.80;73.50;;;;;;5066853;28;20101;-71
2022/04/18 00:39:03;;;;;;;7.10;3.72;;;7.80;73.30;;;;;;5068566;28;20055;-71
2022/04/18 00:41:28;;;;;;;8.25;4.13;;;7.70;73.20;;;;;;5052419;28;20040;-72
2022/04/18 00:43:54;;;;;;;6.38;3.88;;;7.70;73.00;;;;;;5069415;28;20128;-71
2022/04/18 00:46:20;;;;;;;7.38;3.78;;;7.80;72.30;;;;;;5068318;28;20071;-71
2022/04/18 00:48:47;;;;;;;8.93;4.40;;;7.70;72.70;;;;;;5067466;28;20055;-72
2022/04/18 00:51:16;;;;;;;8.25;4.35;;;7.70;72.60;;;;;;5067558;28;20600;-71
2022/04/18 00:53:43;;;;;;;6.35;3.70;;;7.80;72.70;;;;;;5051523;28;20553;-72
2022/04/18 00:56:12;;;;;;;7.28;3.72;;;7.80;73.20;;;;;;5065868;28;20562;-71
2022/04/18 00:58:41;;;;;;;9.55;4.68;;;7.80;73.00;;;;;;5052636;28;20548;-71
2022/04/18 01:01:06;;;;;;;6.35;4.10;;;7.80;72.80;;;;;;5051528;28;20049;-71
2022/04/18 01:03:32;;;;;;;8.48;4.28;;;7.80;72.80;;;;;;5069070;28;20042;-71
2022/04/18 01:06:02;;;;;;;8.13;4.05;;;7.80;72.90;;;;;;5065352;28;20044;-71
2022/04/18 01:08:28;;;;;;;8.93;4.57;;;7.80;73.10;;;;;;5051139;28;20044;-71
2022/04/18 01:10:54;;;;;;;8.40;4.55;;;7.70;73.10;;;;;;5067823;28;20107;-71
2022/04/18 01:13:21;;;;;;;8.73;4.20;;;7.70;73.30;;;;;;5069104;28;20044;-71
2022/04/18 01:15:51;;;;;;;8.27;3.97;;;7.70;73.60;;;;;;5065328;28;20051;-71
2022/04/18 01:18:17;;;;;;;10.50;4.65;;;7.70;73.00;;;;;;5069194;28;20040;-71
2022/04/18 01:20:42;;;;;;;5.72;3.92;;;7.70;73.20;;;;;;5049188;28;20056;-71
2022/04/18 01:23:08;;;;;;;10.75;4.15;;;7.70;74.10;;;;;;5066276;28;20043;-71
2022/04/18 01:31:02;;;;;;;5.05;3.35;;;7.60;73.90;;;;;;5066775;28;20036;-72
2022/04/18 01:33:29;;;;;;;10.25;4.60;;;7.60;73.70;;;;;;5067752;28;20470;-71
2022/04/18 01:35:55;;;;;;;7.45;3.97;;;7.60;73.70;;;;;;5065506;28;20037;-71
2022/04/18 01:38:20;;;;;;;8.77;4.57;;;7.60;73.60;;;;;;5050309;28;20715;-71
2022/04/18 01:40:46;;;;;;;7.57;4.47;;;7.60;73.30;;;;;;5050248;28;20033;-72
2022/04/18 01:43:11;;;;;;;8.27;4.78;;;7.60;73.40;;;;;;5068595;28;20033;-71
2022/04/18 01:45:37;;;;;;;10.88;4.28;;;7.60;73.20;;;;;;5066626;28;20032;-71
2022/04/18 01:48:03;;;;;;;9.48;4.68;;;7.60;73.40;;;;;;5065484;28;20412;-71
2022/04/18 01:50:29;;;;;;;5.57;3.58;;;7.60;73.50;;;;;;5066337;28;20044;-71
2022/04/18 01:52:54;;;;;;;8.90;4.30;;;7.50;73.80;;;;;;5066566;28;20044;-71
2022/04/18 01:55:20;;;;;;;8.80;4.10;;;7.50;73.20;;;;;;5066186;28;20151;-72
2022/04/18 01:57:46;;;;;;;7.72;3.85;;;7.50;73.10;;;;;;5051678;28;20045;-71
2022/04/18 02:00:11;;;;;;;9.75;4.25;;;7.60;73.60;;;;;;5049994;28;20036;-71
2022/04/18 02:02:37;;;;;;;8.23;4.07;;;7.50;74.00;;;;;;5067439;28;20043;-71
2022/04/18 02:05:06;;;;;;;8.13;4.22;;;7.50;74.40;;;;;;5067028;28;20039;-72
2022/04/18 02:07:32;;;;;;;8.60;4.88;;;7.50;74.10;;;;;;5065906;28;20497;-71
2022/04/18 02:09:57;;;;;;;8.38;3.85;;;7.50;74.50;;;;;;5067184;28;20045;-71
2022/04/18 02:12:23;;;;;;;8.90;4.70;;;7.40;75.30;;;;;;5066650;28;20107;-71
2022/04/18 02:14:49;;;;;;;9.35;4.13;;;7.40;74.80;;;;;;5066780;28;20127;-71
2022/04/18 02:17:14;;;;;;;7.57;3.80;;;7.30;75.20;;;;;;5066154;28;20047;-72
2022/04/18 02:19:40;;;;;;;8.43;3.88;;;7.30;75.70;;;;;;5050650;28;20040;-71
2022/04/18 02:22:05;;;;;;;7.32;3.28;;;7.30;75.20;;;;;;5065525;28;20043;-71
2022/04/18 02:24:32;;;;;;;7.22;4.10;;;7.20;75.50;;;;;;5066265;28;20175;-71
2022/04/18 02:26:58;;;;;;;9.77;3.97;;;7.20;76.60;;;;;;5050274;28;20120;-71
2022/04/18 02:29:23;;;;;;;12.90;4.65;;;7.10;76.60;;;;;;5066224;28;20119;-71
2022/04/18 02:34:34;;;;;;;7.82;3.85;;;7.00;77.90;;;;;;5067054;28;20135;-71
2022/04/18 02:36:59;;;;;;;6.53;3.72;;;7.00;78.20;;;;;;5064194;28;20127;-71
2022/04/18 02:39:25;;;;;;;8.52;4.78;;;7.00;78.50;;;;;;5066574;28;20493;-71
2022/04/18 02:41:50;;;;;;;6.85;4.03;;;6.90;78.90;;;;;;5067162;28;20039;-71
2022/04/18 02:44:16;;;;;;;9.10;4.05;;;6.90;79.20;;;;;;5065809;28;20036;-71
2022/04/18 02:46:42;;;;;;;8.27;3.72;;;6.80;79.30;;;;;;5066764;28;20040;-71
2022/04/18 02:49:07;;;;;;;7.53;4.32;;;6.80;80.10;;;;;;5055938;28;20442;-71
2022/04/18 02:51:33;;;;;;;7.65;3.72;;;6.70;80.00;;;;;;5043239;28;20068;-71
2022/04/18 02:53:59;;;;;;;6.75;4.10;;;6.60;80.70;;;;;;5064853;28;20040;-72
2022/04/18 02:56:25;;;;;;;7.82;3.97;;;6.60;81.30;;;;;;5049262;28;20041;-71
2022/04/18 02:58:50;;;;;;;7.68;4.63;;;6.50;81.80;;;;;;5066530;28;20036;-71
2022/04/18 03:01:16;;;;;;;7.25;4.43;;;6.40;82.00;;;;;;5067314;28;20042;-72
2022/04/18 03:03:42;;;;;;;9.40;4.28;;;6.40;82.50;;;;;;5049708;28;20127;-71
2022/04/18 03:06:10;;;;;;;8.30;3.90;;;6.40;83.20;;;;;;5065126;28;20044;-71
2022/04/18 03:08:36;;;;;;;5.88;3.75;;;6.30;83.30;;;;;;5049417;28;20040;-71
2022/04/18 03:11:05;;;;;;;9.00;4.40;;;6.30;83.60;;;;;;5066691;28;20501;-71
2022/04/18 03:13:35;;;;;;;8.15;4.18;;;6.30;83.80;;;;;;5067243;28;20073;-71
2022/04/18 03:16:02;;;;;;;8.23;3.83;;;6.30;84.10;;;;;;5045019;28;20040;-71
2022/04/18 03:18:28;;;;;;;7.78;3.63;;;6.30;83.80;;;;;;5050433;28;20048;-71
2022/04/18 03:20:54;;;;;;;7.63;3.42;;;6.30;83.70;;;;;;5065418;28;20036;-71
2022/04/18 03:23:19;;;;;;;7.40;4.38;;;6.30;83.90;;;;;;5063084;28;20577;-71
2022/04/18 03:25:45;;;;;;;6.57;3.63;;;6.20;83.70;;;;;;5066040;28;20033;-71
2022/04/18 03:28:11;;;;;;;9.45;4.28;;;6.20;83.80;;;;;;5054702;28;20181;-71
2022/04/18 03:30:37;;;;;;;9.30;3.88;;;6.20;83.50;;;;;;5049818;28;20118;-71
2022/04/18 03:33:03;;;;;;;12.30;5.80;;;6.20;84.50;;;;;;5070515;28;20059;-71
2022/04/18 03:35:30;;;;;;;9.10;4.75;;;6.10;83.80;;;;;;5068423;28;20033;-71
2022/04/18 03:40:40;;;;;;;8.68;4.25;;;6.10;84.80;;;;;;5071273;28;20045;-71
2022/04/18 03:43:06;;;;;;;5.78;3.65;;;6.10;85.50;;;;;;5069236;28;20040;-71
2022/04/18 03:45:31;;;;;;;7.47;4.05;;;6.10;85.50;;;;;;5070201;28;20146;-71
2022/04/18 03:47:57;;;;;;;7.40;4.13;;;6.10;85.50;;;;;;5069855;28;20048;-71
2022/04/18 03:50:22;;;;;;;6.00;3.63;;;6.10;85.50;;;;;;5068486;28;20024;-71
2022/04/18 03:52:48;;;;;;;8.77;3.65;;;6.10;85.70;;;;;;5067651;28;20085;-71
2022/04/18 03:55:13;;;;;;;8.15;3.88;;;6.10;85.30;;;;;;5068913;28;20115;-71
2022/04/18 03:57:39;;;;;;;6.05;3.05;;;6.10;85.20;;;;;;5069556;28;20450;-71
2022/04/18 04:00:06;;;;;;;5.40;2.92;;;6.20;84.90;;;;;;5071318;28;20036;-71
2022/04/18 04:02:32;;;;;;;7.18;4.30;;;6.20;84.60;;;;;;5065996;28;20123;-71
2022/04/18 04:04:57;;;;;;;7.70;3.47;;;6.20;84.30;;;;;;5069115;28;20124;-72
2022/04/18 04:07:23;;;;;;;6.88;3.78;;;6.20;83.90;;;;;;5054625;28;20501;-71
2022/04/18 04:09:48;;;;;;;7.40;3.95;;;6.20;83.70;;;;;;5067247;28;20547;-71
2022/04/18 04:12:21;;;;;;;4.90;3.38;;;6.30;83.40;;;;;;5053155;28;20051;-71
2022/04/18 04:14:49;;;;;;;7.03;4.05;;;6.30;82.90;;;;;;5070712;28;20097;-71
2022/04/18 04:17:15;;;;;;;5.10;3.35;;;6.30;82.40;;;;;;5067566;28;20040;-71
2022/04/18 04:19:40;;;;;;;7.07;3.80;;;6.30;82.20;;;;;;5069210;28;20169;-71
2022/04/18 04:22:06;;;;;;;8.25;3.70;;;6.40;82.20;;;;;;5048038;28;20036;-71
2022/04/18 04:24:32;;;;;;;7.95;4.38;;;6.40;82.20;;;;;;5056882;28;20526;-71
2022/04/18 04:26:58;;;;;;;7.05;3.90;;;6.30;82.10;;;;;;5063117;28;20463;-71
2022/04/18 04:29:23;;;;;;;6.28;3.75;;;6.30;82.10;;;;;;5069748;28;20044;-71
2022/04/18 04:31:49;;;;;;;8.57;4.13;;;6.30;82.50;;;;;;5069509;28;20052;-71
2022/04/18 04:34:16;;;;;;;6.95;3.85;;;6.30;82.30;;;;;;5052889;28;20040;-71
2022/04/18 04:36:41;;;;;;;5.30;3.33;;;6.30;82.30;;;;;;5064931;28;20514;-71
2022/04/18 04:39:08;;;;;;;5.78;3.90;;;6.30;82.30;;;;;;5069389;28;20048;-71
2022/04/18 04:41:34;;;;;;;9.15;3.90;;;6.40;82.70;;;;;;5069380;28;20036;-71
2022/04/18 04:43:59;;;;;;;5.53;3.13;;;6.30;82.30;;;;;;5068924;28;20040;-71
2022/04/18 04:46:25;;;;;;;7.60;4.25;;;6.40;82.20;;;;;;5066622;28;20028;-71
2022/04/18 04:48:50;;;;;;;6.15;3.50;;;6.40;82.30;;;;;;5069657;28;20041;-71
2022/04/18 04:51:16;;;;;;;6.22;3.78;;;6.30;82.60;;;;;;5059022;28;20345;-71
2022/04/18 04:53:41;;;;;;;10.13;4.45;;;6.40;83.30;;;;;;5069015;28;20043;-71
2022/04/18 04:56:07;;;;;;;6.90;3.53;;;6.40;83.30;;;;;;5068151;28;20033;-71
2022/04/18 04:58:33;;;;;;;7.38;3.67;;;6.30;83.60;;;;;;5069669;28;20043;-71
2022/04/18 05:00:58;;;;;;;6.13;3.33;;;6.30;83.80;;;;;;5068516;28;20056;-71
2022/04/18 05:03:24;;;;;;;8.50;3.80;;;6.30;84.00;;;;;;5069791;28;20509;-71
2022/04/18 05:05:50;;;;;;;7.30;3.55;;;6.30;84.40;;;;;;5067041;28;20048;-71
2022/04/18 05:08:16;;;;;;;8.68;4.13;;;6.30;84.30;;;;;;5068145;28;20040;-71
2022/04/18 05:10:41;;;;;;;6.18;3.60;;;6.30;84.30;;;;;;5067056;28;20036;-71
2022/04/18 05:13:07;;;;;;;8.02;3.88;;;6.30;84.80;;;;;;5053007;28;20040;-71
2022/04/18 05:15:33;;;;;;;11.50;3.95;;;6.30;84.50;;;;;;5050368;28;20041;-71
2022/04/18 05:17:59;;;;;;;6.63;3.38;;;6.40;84.60;;;;;;5070273;28;20039;-71
2022/04/18 05:20:25;;;;;;;5.18;3.05;;;6.40;84.80;;;;;;5067726;28;20036;-71
2022/04/18 05:22:50;;;;;;;5.78;3.92;;;6.40;85.20;;;;;;5068641;28;20032;-71
2022/04/18 05:25:16;;;;;;;7.28;3.35;;;6.40;85.10;;;;;;5050868;28;20040;-71
2022/04/18 05:27:42;;;;;;;7.40;3.90;;;6.40;85.20;;;;;;5068180;28;20114;-71
2022/04/18 05:30:08;;;;;;;7.13;3.78;;;6.50;84.40;;;;;;5067560;28;20048;-71
2022/04/18 05:32:34;;;;;;;5.60;3.00;;;6.50;84.10;;;;;;5066332;28;20080;-72
2022/04/18 05:34:59;;;;;;;7.28;3.92;;;6.50;84.20;;;;;;5067913;28;20048;-71
2022/04/18 05:37:25;;;;;;;6.60;3.50;;;6.60;84.10;;;;;;5057269;28;20109;-72
2022/04/18 05:39:51;;;;;;;11.40;4.05;;;6.60;83.70;;;;;;5067275;28;20043;-71
2022/04/18 05:42:16;;;;;;;4.63;2.92;;;6.60;83.40;;;;;;5067387;28;20041;-71
2022/04/18 05:44:42;;;;;;;9.43;3.90;;;6.60;83.70;;;;;;5067489;28;20076;-71
2022/04/18 05:47:07;;;;;;;7.32;3.30;;;6.70;83.70;;;;;;5066476;28;20029;-71
2022/04/18 05:49:33;;;;;;;4.43;3.03;;;6.70;84.20;;;;;;5064336;28;20044;-71
2022/04/18 05:51:58;;;;;;;6.70;3.55;;;6.70;83.60;;;;;;5061027;28;20036;-71
2022/04/18 05:54:24;;;;;;;5.95;3.05;;;6.70;83.60;;;;;;5068114;28;20074;-71
2022/04/18 05:56:49;;;;;;;6.30;3.30;;;6.80;83.10;;;;;;5051148;28;20051;-71
2022/04/18 05:59:15;;;;;;;6.80;3.40;;;6.80;83.00;;;;;;5066727;28;20094;-71
2022/04/18 06:01:40;;;;;;;7.75;3.60;;;6.80;82.90;;;;;;5066147;28;20047;-71
2022/04/18 06:04:06;;;;;;;4.97;3.22;;;6.90;82.70;;;;;;5062629;28;20555;-71
2022/04/18 06:06:32;;;;;;;7.97;3.35;;;7.00;82.70;;;;;;5049732;28;20032;-72
2022/04/18 06:08:57;;;;;;;7.35;3.30;;;7.00;82.40;;;;;;5067579;28;20051;-72
2022/04/18 06:11:23;;;;;;;9.52;3.60;;;7.00;82.60;;;;;;5067540;28;20071;-72
2022/04/18 06:13:48;;;;;;;6.05;3.22;;;7.00;82.30;;;;;;5065537;28;20056;-72
2022/04/18 06:16:14;;;;;;;5.25;3.10;;;7.10;82.10;;;;;;5063718;28;20118;-72
2022/04/18 06:18:39;;;;;;;4.13;2.70;;;7.10;82.00;;;;;;5062586;28;20045;-72
2022/04/18 06:21:06;;;;;;;8.90;3.88;;;7.20;82.00;;;;;;5064584;28;20135;-72
2022/04/18 06:23:32;;;;;;;5.13;3.22;;;7.30;81.80;;;;;;5047637;28;20028;-73
2022/04/18 06:25:57;;;;;;;5.57;2.85;;;7.30;82.20;;;;;;5066426;28;20040;-72
2022/04/18 06:28:23;;;;;;;5.90;3.03;;;7.40;81.40;;;;;;5068141;28;20048;-72
2022/04/18 06:30:48;;;;;;;6.25;3.20;;;7.40;81.10;;;;;;5066515;28;20040;-72
2022/04/18 06:33:14;;;;;;;6.07;3.22;;;7.50;81.40;;;;;;5065538;28;20040;-72
2022/04/18 06:35:41;;;;;;;4.50;2.65;;;7.50;81.70;;;;;;5066243;28;20036;-72
2022/04/18 06:38:08;;;;;;;5.10;3.22;;;7.60;81.80;;;;;;5064651;28;20053;-72
2022/04/18 06:40:34;;;;;;;6.70;3.47;;;7.70;82.20;;;;;;5050075;28;20418;-72
2022/04/18 06:42:59;;;;;;;4.97;2.58;;;7.70;81.80;;;;;;5066342;28;20032;-73
2022/04/18 06:45:26;;;;;;;5.30;2.83;;;7.80;81.90;;;;;;5066679;28;20121;-72
2022/04/18 06:47:52;;;;;;;8.30;3.38;;;7.90;81.90;;;;;;5063976;28;20044;-73
2022/04/18 06:50:17;;;;;;;5.20;3.00;;;8.00;81.90;;;;;;5047991;28;20451;-72
2022/04/18 06:52:46;;;;;;;5.90;3.25;;;8.10;82.00;;;;;;5047053;28;20032;-73
2022/04/18 06:55:12;;;;;;;4.60;3.03;;;8.20;81.80;;;;;;5061927;28;20044;-73
2022/04/18 06:57:38;;;;;;;5.13;3.05;;;8.30;81.30;;;;;;5064532;28;20040;-73
2022/04/18 07:00:05;;;;;;;8.57;3.20;;;8.30;80.90;;;;;;5064610;28;20449;-73
2022/04/18 07:02:31;;;;;;;8.05;2.97;;;8.50;81.50;;;;;;5042373;28;20044;-73
2022/04/18 07:04:57;;;;;;;5.45;2.85;;;8.50;80.90;;;;;;5063434;28;20127;-73
2022/04/18 07:07:22;;;;;;;7.15;3.35;;;8.60;81.20;;;;;;5063400;28;20124;-73
2022/04/18 07:09:48;;;;;;;7.15;2.90;;;8.60;81.00;;;;;;5066789;28;20410;-73
2022/04/18 07:12:14;;;;;;;7.15;3.42;;;8.70;80.30;;;;;;5064170;28;20068;-73
2022/04/18 07:14:39;;;;;;;4.82;2.72;;;8.80;79.60;;;;;;5057162;28;20044;-73
2022/04/18 07:17:06;;;;;;;4.20;2.58;;;8.90;79.60;;;;;;5056120;28;20493;-73
2022/04/18 07:19:33;;;;;;;6.30;2.72;;;9.00;78.80;;;;;;5044079;28;20465;-73
2022/04/18 07:21:59;;;;;;;4.03;2.60;;;9.10;78.20;;;;;;5058613;28;20512;-73
2022/04/18 07:24:25;;;;;;;7.40;2.55;;;9.10;77.90;;;;;;5055165;28;20037;-73
2022/04/18 07:26:51;;;;;;;4.97;3.35;;;9.20;77.50;;;;;;5061492;28;20052;-73
2022/04/18 07:29:16;;;;;;;4.57;1.90;;;9.30;77.40;;;;;;5046841;28;20489;-73
2022/04/18 07:31:42;;;;;;;9.13;3.17;;;9.40;77.10;;;;;;5059865;28;20098;-73
2022/04/18 07:34:08;;;;;;;4.40;2.58;;;9.40;77.80;;;;;;5066389;28;20039;-73
2022/04/18 07:36:34;;;;;;;5.57;2.97;;;9.40;77.80;;;;;;5063204;28;20084;-73
2022/04/18 07:39:00;;;;;;;6.10;2.17;;;9.50;76.90;;;;;;5061200;28;20064;-73
2022/04/18 07:41:28;;;;;;;7.03;3.00;;;9.60;76.70;;;;;;5058716;28;20548;-73
2022/04/18 07:43:55;;;;;;;4.30;2.25;;;9.70;75.90;;;;;;5039852;28;20036;-73
2022/04/18 07:46:21;;;;;;;4.20;2.38;;;9.70;76.20;;;;;;5058716;28;20058;-74
2022/04/18 07:48:50;;;;;;;4.55;2.03;;;9.80;75.60;;;;;;5044538;28;20041;-74
2022/04/18 07:51:34;;;;;;;6.70;2.65;;;9.90;75.10;;;;;;5060866;28;20364;-74
2022/04/18 07:54:01;;;;;;;3.58;2.20;;;10.00;73.90;;;;;;5047788;28;20405;-73
2022/04/18 07:56:27;;;;;;;5.95;2.95;;;10.10;73.60;;;;;;5043358;28;20060;-73
2022/04/18 07:58:53;;;;;;;6.97;2.13;;;10.20;73.50;;;;;;5059535;28;20044;-75
2022/04/18 08:01:20;;;;;;;4.78;1.55;;;10.20;73.30;;;;;;5062814;28;20379;-73
2022/04/18 08:03:46;;;;;;;4.38;2.22;;;10.30;73.30;;;;;;5064544;28;20392;-73
2022/04/18 08:06:12;;;;;;;5.88;2.50;;;10.40;73.20;;;;;;5064307;28;20040;-73
2022/04/18 08:08:38;;;;;;;4.30;2.40;;;10.50;73.20;;;;;;5061362;28;20396;-74
2022/04/18 08:11:05;;;;;;;4.10;1.98;;;10.50;73.20;;;;;;5062106;28;22154;-73
2022/04/18 08:13:31;;;;;;;5.05;2.53;;;10.60;72.20;;;;;;5046504;28;20033;-73
2022/04/18 08:15:57;;;;;;;3.45;1.75;;;10.60;72.50;;;;;;5064510;28;20036;-73
2022/04/18 08:18:23;;;;;;;4.78;1.90;;;10.70;72.30;;;;;;5051045;28;20040;-73
2022/04/18 08:20:49;;;;;;;4.68;2.40;;;10.80;70.90;;;;;;5069352;28;20111;-73
2022/04/18 08:23:14;;;;;;;3.47;1.88;;;10.80;71.00;;;;;;5063759;28;20048;-73
2022/04/18 08:25:40;;;;;;;4.20;2.10;;;10.90;71.70;;;;;;5068938;28;20036;-73
2022/04/18 08:28:06;;;;;;;4.25;2.55;;;11.00;70.30;;;;;;5067651;28;20328;-73
2022/04/18 08:30:31;;;;;;;4.97;2.33;;;11.00;70.00;;;;;;5037294;28;20033;-73
2022/04/18 08:32:57;;;;;;;5.20;2.08;;;11.00;70.20;;;;;;5046479;28;20044;-73
2022/04/18 08:35:23;;;;;;;3.83;1.90;;;11.00;70.50;;;;;;5047076;28;20073;-73
2022/04/18 08:37:48;;;;;;;6.07;2.67;;;11.10;69.90;;;;;;5050229;28;20045;-73
2022/04/18 08:40:14;;;;;;;3.65;2.03;;;11.20;69.60;;;;;;5047146;28;20041;-73
2022/04/18 08:42:41;;;;;;;3.88;2.00;;;11.20;69.10;;;;;;5066107;28;20102;-73
2022/04/18 08:45:12;;;;;;;5.10;1.95;;;11.30;69.10;;;;;;5050740;28;20068;-73
2022/04/18 08:53:12;;;;;;;4.45;2.70;;;11.50;70.60;;;;;;5056540;28;20498;-73
2022/04/18 08:55:38;;;;;;;4.40;2.17;;;11.50;69.30;;;;;;5042806;28;20093;-73
2022/04/18 08:58:05;;;;;;;4.68;2.42;;;11.70;69.70;;;;;;5042258;28;20036;-73
2022/04/18 09:00:30;;;;;;;4.60;2.38;;;11.60;70.20;;;;;;5060379;28;20040;-74
2022/04/18 09:02:56;;;;;;;4.90;2.35;;;11.70;70.50;;;;;;5057254;28;20473;-74
2022/04/18 09:05:22;;;;;;;6.80;2.70;;;11.70;69.40;;;;;;5060487;28;20049;-73
2022/04/18 09:08:03;;;;;;;4.00;2.53;;;11.70;69.80;;;;;;5042781;28;20033;-73
2022/04/18 09:10:29;;;;;;;4.15;1.95;;;11.80;70.10;;;;;;5055640;28;20493;-73
2022/04/18 09:13:06;;;;;;;3.85;2.20;;;11.90;70.20;;;;;;5054135;28;20082;-73
2022/04/18 09:15:36;;;;;;;4.13;1.85;;;11.90;69.00;;;;;;5038494;28;20051;-73
2022/04/18 09:18:15;;;;;;;3.47;1.77;;;11.90;69.30;;;;;;5042009;28;20033;-73
2022/04/18 09:20:46;;;;;;;4.13;2.03;;;11.90;69.20;;;;;;5054140;28;20044;-73
2022/04/18 09:23:23;;;;;;;3.72;2.13;;;11.90;69.10;;;;;;5053099;28;20045;-73
2022/04/18 09:26:00;;;;;;;5.55;2.03;;;12.00;68.50;;;;;;5053700;28;20106;-73
2022/04/18 09:28:35;;;;;;;6.18;2.03;;;12.00;69.40;;;;;;5055984;28;20067;-73
2022/04/18 09:31:02;;;;;;;3.20;2.08;;;12.10;68.40;;;;;;5036680;28;20037;-73
2022/04/18 09:33:30;;;;;;;3.72;1.90;;;12.10;68.20;;;;;;5061066;28;20048;-73
2022/04/18 09:36:06;;;;;;;4.43;2.30;;;12.10;68.80;;;;;;5060048;28;20032;-73
2022/04/18 09:38:36;;;;;;;4.68;2.38;;;12.20;68.30;;;;;;5060162;28;20037;-72
2022/04/18 09:41:02;;;;;;;5.40;2.17;;;12.20;67.80;;;;;;5060479;28;22110;-73
2022/04/18 09:43:46;;;;;;;3.78;2.05;;;12.30;67.90;;;;;;5063688;28;20055;-73
2022/04/18 09:46:12;;;;;;;3.78;1.90;;;12.40;67.70;;;;;;5060015;28;20032;-73
2022/04/18 09:48:39;;;;;;;4.28;2.10;;;12.40;67.60;;;;;;5060504;28;20064;-73
2022/04/18 09:51:13;;;;;;;3.80;1.95;;;12.50;67.50;;;;;;5040398;28;20037;-73
2022/04/18 09:53:43;;;;;;;5.15;2.20;;;12.50;66.70;;;;;;5053410;28;20047;-74
2022/04/18 09:56:14;;;;;;;3.95;1.73;;;12.60;66.60;;;;;;5042634;28;20044;-74
2022/04/18 09:58:39;;;;;;;4.40;1.60;;;12.70;66.60;;;;;;5041172;28;20453;-74
2022/04/18 10:01:06;;;;;;;2.08;1.38;;;12.70;65.90;;;;;;5057265;28;20158;-74
2022/04/18 10:03:32;;;;;;;4.32;2.10;;;12.70;65.70;;;;;;5052907;28;20241;-74
2022/04/18 10:05:59;;;;;;;2.70;1.55;;;12.80;65.80;;;;;;5037514;28;20055;-74
2022/04/18 10:08:26;;;;;;;3.30;1.80;;;12.80;64.80;;;;;;5059272;28;20036;-74
2022/04/18 10:10:52;;;;;;;3.00;1.48;;;12.80;65.00;;;;;;5043886;28;20070;-74
2022/04/18 10:13:20;;;;;;;2.78;1.60;;;12.90;66.10;;;;;;5046478;28;20029;-73
2022/04/18 10:15:47;;;;;;;1.73;1.10;;;13.00;65.90;;;;;;5043121;28;20036;-74
2022/04/18 10:18:14;;;;;;;4.60;1.35;;;13.30;65.20;;;;;;5044669;28;20024;-74
2022/04/18 10:20:55;;;;;;;3.72;1.98;;;13.40;64.80;;;;;;5045450;28;20090;-73
2022/04/18 10:23:42;;;;;;;3.75;1.20;;;13.50;63.20;;;;;;5053561;28;20131;-74
2022/04/18 10:26:22;;;;;;;1.88;0.88;;;13.40;63.50;;;;;;5043762;28;20036;-74
2022/04/18 10:28:52;;;;;;;3.35;1.42;;;13.50;63.60;;;;;;5060274;28;20757;-74
2022/04/18 10:31:23;;;;;;;4.35;1.75;;;13.40;64.50;;;;;;5043936;28;20115;-74
2022/04/18 10:33:49;;;;;;;3.17;1.67;;;13.50;64.50;;;;;;5058757;28;20036;-74
2022/04/18 10:36:28;;;;;;;2.38;1.40;;;13.60;64.10;;;;;;5058690;28;20520;-74
2022/04/18 10:38:56;;;;;;;2.35;1.25;;;13.60;63.80;;;;;;5055898;28;20673;-74
2022/04/18 10:41:35;;;;;;;1.88;1.40;;;13.60;63.80;;;;;;5052040;28;20047;-74
2022/04/18 10:44:08;;;;;;;1.92;1.15;;;13.70;63.70;;;;;;5037093;28;20040;-74
2022/04/18 10:46:38;;;;;;;5.07;1.33;;;13.70;63.80;;;;;;5060288;28;20040;-73
2022/04/18 10:49:13;;;;;;;4.05;1.10;;;13.90;63.50;;;;;;5062032;28;20151;-74
2022/04/18 10:51:40;;;;;;;2.45;1.20;;;14.10;61.80;;;;;;5059549;28;20036;-74
2022/04/18 10:54:13;;;;;;;1.92;1.05;;;14.10;61.10;;;;;;5059238;28;20664;-76
2022/04/18 10:57:01;;;;;;;2.22;0.90;;;14.20;59.50;;;;;;5057668;28;20048;-76
2022/04/18 10:59:27;;;;;;;2.42;1.25;;;14.10;58.10;;;;;;5041097;28;20120;-76
2022/04/18 11:02:32;;;;;;;2.38;1.20;;;14.20;59.80;;;;;;5061873;28;20462;-76
2022/04/18 11:05:00;;;;;;;1.77;1.00;;;14.30;57.60;;;;;;5054915;28;20391;-76
2022/04/18 11:07:38;;;;;;;2.13;0.98;;;14.40;59.50;;;;;;5058973;28;20058;-76
2022/04/18 11:10:20;;;;;;;3.50;1.00;;;14.40;56.50;;;;;;5042764;28;20040;-76
2022/04/18 11:12:47;;;;;;;1.70;0.93;;;14.40;56.40;;;;;;5059679;28;20421;-76
2022/04/18 11:15:13;;;;;;;2.55;0.90;;;14.40;57.80;;;;;;5059484;28;20075;-76
2022/04/18 11:17:40;;;;;;;2.08;1.10;;;14.50;58.30;;;;;;5057275;28;20165;-76
2022/04/18 11:20:25;;;;;;;2.47;1.00;;;14.60;57.40;;;;;;5055357;28;20033;-76
2022/04/18 11:23:23;;;;;;;2.97;1.27;;;14.60;56.50;;;;;;5055341;28;20131;-76
2022/04/18 11:25:51;;;;;;;5.68;1.27;;;14.70;57.20;;;;;;5059097;28;20044;-76
2022/04/18 11:28:18;;;;;;;1.63;0.90;;;14.70;57.50;;;;;;5042185;28;20040;-76
2022/04/18 11:30:43;;;;;;;2.42;0.95;;;14.70;57.80;;;;;;5039373;28;20045;-76
2022/04/18 11:33:09;;;;;;;0.90;0.63;;;14.80;57.50;;;;;;5057126;28;20510;-76
2022/04/18 11:35:35;;;;;;;2.13;0.90;;;14.80;57.20;;;;;;5060939;28;20498;-76
2022/04/18 11:38:08;;;;;;;2.75;1.20;;;14.90;57.40;;;;;;5055870;28;20131;-77
2022/04/18 11:40:38;;;;;;;2.33;1.23;;;15.00;57.10;;;;;;5059013;28;20044;-76
2022/04/18 11:43:18;;;;;;;2.22;1.42;;;15.20;56.50;;;;;;5060517;28;20036;-76
2022/04/18 11:45:44;;;;;;;2.03;0.90;;;15.20;55.90;;;;;;5058266;28;20060;-77
2022/04/18 11:48:13;;;;;;;2.75;1.00;;;15.10;55.50;;;;;;5062209;28;20520;-77
2022/04/18 11:50:43;;;;;;;2.92;1.67;;;15.10;55.80;;;;;;5045223;28;20067;-77
2022/04/18 11:53:09;;;;;;;3.58;1.30;;;15.10;56.10;;;;;;5058074;28;20379;-76
2022/04/18 11:55:47;;;;;;;2.58;1.35;;;15.10;56.10;;;;;;5062076;28;20119;-76
2022/04/18 11:58:18;;;;;;;3.92;1.38;;;15.10;55.50;;;;;;5045892;28;20453;-77
2022/04/18 12:09:11;;;;;;;3.00;1.30;;;15.00;55.70;;;;;;5063057;28;20036;-77
2022/04/18 12:11:37;;;;;;;2.45;1.50;;;15.00;55.30;;;;;;5065271;28;20147;-77
2022/04/18 12:14:03;;;;;;;2.38;1.40;;;14.90;54.60;;;;;;5068870;28;20371;-77
2022/04/18 12:16:37;;;;;;;2.90;1.10;;;14.80;54.90;;;;;;5068960;28;20086;-77
2022/04/18 12:19:05;;;;;;;3.58;1.30;;;14.90;55.50;;;;;;5053028;28;20489;-77
2022/04/18 12:21:30;;;;;;;2.47;1.25;;;14.90;56.00;;;;;;5052214;28;20062;-77
2022/04/18 12:23:59;;;;;;;2.22;1.27;;;15.00;55.70;;;;;;5069846;28;20393;-77
2022/04/18 12:26:34;;;;;;;2.45;1.30;;;15.10;55.90;;;;;;5070082;28;20136;-77
2022/04/18 12:29:05;;;;;;;2.35;1.23;;;15.10;55.20;;;;;;5069452;28;20048;-77
2022/04/18 12:31:31;;;;;;;2.17;1.40;;;15.10;54.60;;;;;;5049951;28;20459;-77
2022/04/18 12:33:57;;;;;;;2.92;1.48;;;15.10;53.90;;;;;;5049691;28;20072;-77
2022/04/18 12:36:27;;;;;;;3.78;1.50;;;15.10;54.20;;;;;;5067593;28;20113;-77
2022/04/18 12:38:53;;;;;;;3.10;1.30;;;15.10;54.40;;;;;;5070215;28;20110;-77
2022/04/18 12:41:34;;;;;;;3.55;1.33;;;15.10;54.40;;;;;;5070093;28;20093;-77
2022/04/18 12:44:01;;;;;;;3.03;1.42;;;15.10;54.10;;;;;;5068686;28;20507;-77
2022/04/18 12:46:31;;;;;;;2.13;1.17;;;15.30;55.20;;;;;;5052858;28;20494;-76
2022/04/18 12:49:02;;;;;;;3.00;1.48;;;15.40;54.70;;;;;;5053254;28;20078;-77
2022/04/18 12:51:34;;;;;;;2.72;1.50;;;15.40;54.10;;;;;;5068367;28;20048;-77
2022/04/18 12:54:01;;;;;;;4.00;1.65;;;15.40;53.10;;;;;;5052862;28;20574;-77
2022/04/18 12:56:27;;;;;;;3.50;2.03;;;15.30;53.40;;;;;;5052820;28;20046;-77
2022/04/18 12:59:06;;;;;;;1.73;1.08;;;15.30;53.90;;;;;;5051590;28;20036;-77
2022/04/18 13:01:36;;;;;;;2.70;1.48;;;15.30;53.40;;;;;;5069220;28;20163;-77
2022/04/18 13:04:04;;;;;;;2.88;1.45;;;15.30;53.10;;;;;;5052652;28;20051;-77
2022/04/18 13:06:32;;;;;;;3.92;1.25;;;15.30;52.90;;;;;;5066220;28;20094;-77
2022/04/18 13:09:08;;;;;;;2.75;1.55;;;15.20;53.30;;;;;;5069584;28;20119;-77
2022/04/18 13:11:43;;;;;;;1.55;0.93;;;15.30;53.90;;;;;;5069715;28;20048;-77
2022/04/18 13:14:11;;;;;;;2.60;1.50;;;15.40;53.80;;;;;;5069230;28;20445;-77
2022/04/18 13:16:39;;;;;;;2.13;1.15;;;15.40;53.00;;;;;;5068863;28;20082;-77
2022/04/18 13:19:10;;;;;;;2.75;1.48;;;15.40;52.80;;;;;;5068207;28;20505;-77